sensor_id;sensor_type;location;lat;lon;timestamp;pressure;altitude;pressure_sealevel;temperature;humidity
44697;BME280;57264;47.480;19.354;2022-10-31T00:01:25;99607.25;;;15.51;73.32
44697;BME280;57264;47.480;19.354;2022-10-31T00:03:51;99614.25;;;15.41;73.57
44697;BME280;57264;47.480;19.354;2022-10-31T00:06:16;99607.47;;;15.50;73.50
44697;BME280;57264;47.480;19.354;2022-10-31T00:08:45;99609.78;;;15.53;73.17
44697;BME280;57264;47.480;19.354;2022-10-31T00:11:11;99612.50;;;15.53;73.35
44697;BME280;57264;47.480;19.354;2022-10-31T00:13:37;99607.44;;;15.56;73.39
44697;BME280;57264;47.480;19.354;2022-10-31T00:16:02;99618.56;;;15.55;73.69
44697;BME280;57264;47.480;19.354;2022-10-31T00:18:28;99614.41;;;15.52;73.55
44697;BME280;57264;47.480;19.354;2022-10-31T00:21:01;99624.25;;;15.47;73.48
44697;BME280;57264;47.480;19.354;2022-10-31T00:23:27;99621.97;;;15.44;73.61
44697;BME280;57264;47.480;19.354;2022-10-31T00:25:52;99611.47;;;15.47;73.53
44697;BME280;57264;47.480;19.354;2022-10-31T00:28:18;99608.09;;;15.52;73.49
44697;BME280;57264;47.480;19.354;2022-10-31T00:30:43;99604.34;;;15.53;73.14
44697;BME280;57264;47.480;19.354;2022-10-31T00:33:12;99600.78;;;15.52;73.41
44697;BME280;57264;47.480;19.354;2022-10-31T00:35:37;99605.16;;;15.53;73.31
44697;BME280;57264;47.480;19.354;2022-10-31T00:38:03;99606.44;;;15.51;73.23
44697;BME280;57264;47.480;19.354;2022-10-31T00:40:28;99604.13;;;15.48;73.40
44697;BME280;57264;47.480;19.354;2022-10-31T00:42:54;99600.78;;;15.52;73.20
44697;BME280;57264;47.480;19.354;2022-10-31T00:45:19;99599.31;;;15.50;73.28
44697;BME280;57264;47.480;19.354;2022-10-31T00:47:45;99592.22;;;15.49;73.46
44697;BME280;57264;47.480;19.354;2022-10-31T00:50:10;99594.72;;;15.50;73.58
44697;BME280;57264;47.480;19.354;2022-10-31T00:52:36;99593.88;;;15.50;73.44
44697;BME280;57264;47.480;19.354;2022-10-31T00:55:01;99589.28;;;15.50;73.44
44697;BME280;57264;47.480;19.354;2022-10-31T00:57:27;99589.91;;;15.46;73.77
44697;BME280;57264;47.480;19.354;2022-10-31T00:59:52;99586.81;;;15.42;74.44
44697;BME280;57264;47.480;19.354;2022-10-31T01:02:17;99585.34;;;15.46;74.20
44697;BME280;57264;47.480;19.354;2022-10-31T01:04:43;99592.63;;;15.52;73.80
44697;BME280;57264;47.480;19.354;2022-10-31T01:07:09;99591.34;;;15.55;73.99
44697;BME280;57264;47.480;19.354;2022-10-31T01:09:36;99584.06;;;15.49;74.00
44697;BME280;57264;47.480;19.354;2022-10-31T01:12:02;99579.94;;;15.40;74.28
44697;BME280;57264;47.480;19.354;2022-10-31T01:14:27;99578.03;;;15.40;74.47
44697;BME280;57264;47.480;19.354;2022-10-31T01:16:53;99590.63;;;15.34;74.83
44697;BME280;57264;47.480;19.354;2022-10-31T01:19:18;99586.25;;;15.33;74.75
44697;BME280;57264;47.480;19.354;2022-10-31T01:21:45;99576.00;;;15.35;74.88
44697;BME280;57264;47.480;19.354;2022-10-31T01:24:10;99581.81;;;15.39;74.60
44697;BME280;57264;47.480;19.354;2022-10-31T01:26:36;99578.09;;;15.33;74.75
44697;BME280;57264;47.480;19.354;2022-10-31T01:29:04;99582.47;;;15.34;74.85
44697;BME280;57264;47.480;19.354;2022-10-31T01:31:33;99580.59;;;15.35;74.91
44697;BME280;57264;47.480;19.354;2022-10-31T01:33:59;99581.09;;;15.18;75.58
44697;BME280;57264;47.480;19.354;2022-10-31T01:36:28;99571.25;;;15.24;75.57
44697;BME280;57264;47.480;19.354;2022-10-31T01:38:57;99571.03;;;15.26;75.54
44697;BME280;57264;47.480;19.354;2022-10-31T01:41:26;99567.25;;;15.27;75.24
44697;BME280;57264;47.480;19.354;2022-10-31T01:43:56;99567.25;;;15.27;75.31
44697;BME280;57264;47.480;19.354;2022-10-31T01:46:28;99564.31;;;15.28;75.17
44697;BME280;57264;47.480;19.354;2022-10-31T01:48:55;99565.38;;;15.27;74.76
44697;BME280;57264;47.480;19.354;2022-10-31T01:51:28;99566.19;;;15.28;74.42
44697;BME280;57264;47.480;19.354;2022-10-31T01:53:59;99566.00;;;15.29;74.46
44697;BME280;57264;47.480;19.354;2022-10-31T01:56:26;99559.75;;;15.22;75.02
44697;BME280;57264;47.480;19.354;2022-10-31T01:58:54;99571.63;;;15.28;74.78
44697;BME280;57264;47.480;19.354;2022-10-31T02:01:20;99560.75;;;15.28;74.73
44697;BME280;57264;47.480;19.354;2022-10-31T02:03:46;99562.00;;;15.32;74.62
44697;BME280;57264;47.480;19.354;2022-10-31T02:06:37;99557.22;;;15.27;75.12
44697;BME280;57264;47.480;19.354;2022-10-31T02:09:05;99556.63;;;15.18;75.17
44697;BME280;57264;47.480;19.354;2022-10-31T02:11:32;99562.47;;;15.22;75.29
44697;BME280;57264;47.480;19.354;2022-10-31T02:14:00;99557.63;;;15.24;75.17
44697;BME280;57264;47.480;19.354;2022-10-31T02:16:26;99552.84;;;15.20;75.28
44697;BME280;57264;47.480;19.354;2022-10-31T02:18:52;99562.72;;;15.14;76.01
44697;BME280;57264;47.480;19.354;2022-10-31T02:41:26;99564.50;;;15.27;76.16
44697;BME280;57264;47.480;19.354;2022-10-31T02:46:28;99562.59;;;15.34;76.18
44697;BME280;57264;47.480;19.354;2022-10-31T02:49:05;99568.72;;;15.29;75.83
44697;BME280;57264;47.480;19.354;2022-10-31T02:51:32;99568.72;;;15.29;75.84
44697;BME280;57264;47.480;19.354;2022-10-31T02:53:58;99572.31;;;15.23;76.18
44697;BME280;57264;47.480;19.354;2022-10-31T02:56:24;99573.19;;;15.17;75.76
44697;BME280;57264;47.480;19.354;2022-10-31T02:58:53;99579.50;;;15.11;76.31
44697;BME280;57264;47.480;19.354;2022-10-31T03:04:01;99586.13;;;15.22;75.48
44697;BME280;57264;47.480;19.354;2022-10-31T03:12:08;99588.63;;;15.23;75.75
44697;BME280;57264;47.480;19.354;2022-10-31T03:17:50;99589.25;;;15.25;75.65
44697;BME280;57264;47.480;19.354;2022-10-31T03:20:23;99593.22;;;15.23;75.51
44697;BME280;57264;47.480;19.354;2022-10-31T03:22:50;99591.97;;;15.18;75.92
44697;BME280;57264;47.480;19.354;2022-10-31T03:25:16;99590.13;;;15.19;75.73
44697;BME280;57264;47.480;19.354;2022-10-31T03:27:43;99596.19;;;15.21;75.65
44697;BME280;57264;47.480;19.354;2022-10-31T03:30:13;99593.88;;;15.18;75.80
44697;BME280;57264;47.480;19.354;2022-10-31T03:32:45;99598.09;;;15.14;75.73
44697;BME280;57264;47.480;19.354;2022-10-31T03:35:14;99585.72;;;15.18;75.77
44697;BME280;57264;47.480;19.354;2022-10-31T03:37:41;99591.38;;;15.16;75.29
44697;BME280;57264;47.480;19.354;2022-10-31T03:40:09;99598.50;;;15.17;75.58
44697;BME280;57264;47.480;19.354;2022-10-31T03:42:39;99589.94;;;15.14;75.47
44697;BME280;57264;47.480;19.354;2022-10-31T03:45:12;99595.38;;;15.14;75.02
44697;BME280;57264;47.480;19.354;2022-10-31T03:47:38;99598.19;;;15.01;75.24
44697;BME280;57264;47.480;19.354;2022-10-31T03:50:06;99595.47;;;15.01;75.16
44697;BME280;57264;47.480;19.354;2022-10-31T03:55:25;99597.34;;;15.00;74.96
44697;BME280;57264;47.480;19.354;2022-10-31T03:57:53;99605.06;;;15.03;74.73
44697;BME280;57264;47.480;19.354;2022-10-31T04:00:22;99604.66;;;15.00;74.80
44697;BME280;57264;47.480;19.354;2022-10-31T04:03:08;99600.91;;;15.01;74.84
44697;BME280;57264;47.480;19.354;2022-10-31T04:05:37;99601.72;;;15.01;74.66
44697;BME280;57264;47.480;19.354;2022-10-31T04:08:07;99612.22;;;14.91;74.97
44697;BME280;57264;47.480;19.354;2022-10-31T04:10:36;99602.38;;;14.96;74.72
44697;BME280;57264;47.480;19.354;2022-10-31T04:13:10;99605.09;;;14.96;74.91
44697;BME280;57264;47.480;19.354;2022-10-31T04:15:37;99605.72;;;14.98;74.21
44697;BME280;57264;47.480;19.354;2022-10-31T04:18:04;99614.50;;;15.01;73.91
44697;BME280;57264;47.480;19.354;2022-10-31T04:20:35;99608.44;;;14.98;73.92
44697;BME280;57264;47.480;19.354;2022-10-31T04:23:02;99606.38;;;14.94;73.33
44697;BME280;57264;47.480;19.354;2022-10-31T04:25:28;99611.66;;;14.82;73.09
44697;BME280;57264;47.480;19.354;2022-10-31T04:27:53;99611.81;;;14.87;72.90
44697;BME280;57264;47.480;19.354;2022-10-31T04:30:19;99609.72;;;14.89;73.12
44697;BME280;57264;47.480;19.354;2022-10-31T04:32:45;99619.34;;;14.85;73.49
44697;BME280;57264;47.480;19.354;2022-10-31T04:35:10;99615.00;;;14.84;73.40
44697;BME280;57264;47.480;19.354;2022-10-31T04:37:36;99619.00;;;14.75;73.57
44697;BME280;57264;47.480;19.354;2022-10-31T04:40:02;99620.22;;;14.79;73.76
44697;BME280;57264;47.480;19.354;2022-10-31T04:42:31;99624.78;;;14.85;73.97
44697;BME280;57264;47.480;19.354;2022-10-31T04:44:57;99625.41;;;14.87;74.18
44697;BME280;57264;47.480;19.354;2022-10-31T04:47:22;99622.28;;;14.90;74.23
44697;BME280;57264;47.480;19.354;2022-10-31T04:49:48;99612.44;;;14.96;74.40
44697;BME280;57264;47.480;19.354;2022-10-31T04:52:13;99621.84;;;15.00;74.40
44697;BME280;57264;47.480;19.354;2022-10-31T04:54:39;99616.41;;;14.93;74.05
44697;BME280;57264;47.480;19.354;2022-10-31T04:57:04;99622.66;;;15.01;74.32
44697;BME280;57264;47.480;19.354;2022-10-31T04:59:30;99615.97;;;14.96;74.44
44697;BME280;57264;47.480;19.354;2022-10-31T05:01:55;99613.88;;;14.98;74.50
44697;BME280;57264;47.480;19.354;2022-10-31T05:04:21;99623.53;;;14.94;74.59
44697;BME280;57264;47.480;19.354;2022-10-31T05:06:46;99623.94;;;14.98;74.54
44697;BME280;57264;47.480;19.354;2022-10-31T05:09:12;99623.53;;;14.94;74.54
44697;BME280;57264;47.480;19.354;2022-10-31T05:11:37;99625.16;;;14.95;74.71
44697;BME280;57264;47.480;19.354;2022-10-31T05:14:03;99627.47;;;14.98;74.59
44697;BME280;57264;47.480;19.354;2022-10-31T05:16:28;99630.19;;;14.98;74.88
44697;BME280;57264;47.480;19.354;2022-10-31T05:18:54;99623.06;;;14.97;74.90
44697;BME280;57264;47.480;19.354;2022-10-31T05:21:19;99631.47;;;14.96;74.65
44697;BME280;57264;47.480;19.354;2022-10-31T05:23:45;99633.78;;;14.92;74.95
44697;BME280;57264;47.480;19.354;2022-10-31T05:26:11;99626.03;;;14.96;74.90
44697;BME280;57264;47.480;19.354;2022-10-31T05:28:36;99629.38;;;14.91;74.92
44697;BME280;57264;47.480;19.354;2022-10-31T05:31:01;99634.19;;;14.89;74.81
44697;BME280;57264;47.480;19.354;2022-10-31T05:33:27;99637.34;;;14.86;75.08
44697;BME280;57264;47.480;19.354;2022-10-31T05:35:52;99627.75;;;14.77;74.86
44697;BME280;57264;47.480;19.354;2022-10-31T05:38:18;99641.81;;;14.74;74.96
44697;BME280;57264;47.480;19.354;2022-10-31T05:40:43;99652.84;;;14.79;75.33
44697;BME280;57264;47.480;19.354;2022-10-31T05:43:09;99649.72;;;14.82;75.20
44697;BME280;57264;47.480;19.354;2022-10-31T05:45:34;99643.41;;;14.88;75.11
44697;BME280;57264;47.480;19.354;2022-10-31T05:48:01;99639.88;;;14.88;74.41
44697;BME280;57264;47.480;19.354;2022-10-31T05:50:28;99646.75;;;14.90;74.74
44697;BME280;57264;47.480;19.354;2022-10-31T05:53:03;99638.16;;;14.93;74.13
44697;BME280;57264;47.480;19.354;2022-10-31T05:55:30;99645.47;;;14.93;74.43
44697;BME280;57264;47.480;19.354;2022-10-31T05:57:56;99651.97;;;14.98;74.32
44697;BME280;57264;47.480;19.354;2022-10-31T06:00:23;99641.69;;;15.01;74.07
44697;BME280;57264;47.480;19.354;2022-10-31T06:02:49;99659.88;;;15.07;74.05
44697;BME280;57264;47.480;19.354;2022-10-31T06:05:15;99652.38;;;15.02;73.55
44697;BME280;57264;47.480;19.354;2022-10-31T06:07:42;99645.03;;;15.03;73.24
44697;BME280;57264;47.480;19.354;2022-10-31T06:10:08;99651.97;;;14.98;73.19
44697;BME280;57264;47.480;19.354;2022-10-31T06:12:35;99650.47;;;15.03;73.06
44697;BME280;57264;47.480;19.354;2022-10-31T06:15:07;99658.44;;;14.97;73.47
44697;BME280;57264;47.480;19.354;2022-10-31T06:17:35;99649.59;;;15.09;73.59
44697;BME280;57264;47.480;19.354;2022-10-31T06:20:01;99648.94;;;15.13;73.52
44697;BME280;57264;47.480;19.354;2022-10-31T06:22:27;99641.97;;;15.24;73.54
44697;BME280;57264;47.480;19.354;2022-10-31T06:24:53;99634.63;;;15.31;73.23
44697;BME280;57264;47.480;19.354;2022-10-31T06:27:18;99643.41;;;15.33;73.34
44697;BME280;57264;47.480;19.354;2022-10-31T06:29:44;99646.81;;;15.22;73.61
44697;BME280;57264;47.480;19.354;2022-10-31T06:32:11;99652.47;;;15.21;73.61
44697;BME280;57264;47.480;19.354;2022-10-31T06:34:37;99643.91;;;15.17;73.50
44697;BME280;57264;47.480;19.354;2022-10-31T06:37:03;99653.75;;;15.18;73.21
44697;BME280;57264;47.480;19.354;2022-10-31T06:39:28;99650.56;;;15.28;73.20
44697;BME280;57264;47.480;19.354;2022-10-31T06:41:54;99657.44;;;15.30;73.16
44697;BME280;57264;47.480;19.354;2022-10-31T06:44:19;99655.78;;;15.29;72.49
44697;BME280;57264;47.480;19.354;2022-10-31T06:46:48;99653.22;;;15.34;72.80
44697;BME280;57264;47.480;19.354;2022-10-31T06:49:13;99658.25;;;15.37;72.50
44697;BME280;57264;47.480;19.354;2022-10-31T06:51:39;99666.06;;;15.27;72.66
44697;BME280;57264;47.480;19.354;2022-10-31T06:54:04;99678.19;;;15.31;72.58
44697;BME280;57264;47.480;19.354;2022-10-31T06:56:30;99672.28;;;15.34;72.70
44697;BME280;57264;47.480;19.354;2022-10-31T06:58:55;99674.38;;;15.32;72.75
44697;BME280;57264;47.480;19.354;2022-10-31T07:01:21;99679.88;;;15.26;72.55
44697;BME280;57264;47.480;19.354;2022-10-31T07:03:46;99668.16;;;15.18;72.97
44697;BME280;57264;47.480;19.354;2022-10-31T07:06:12;99684.28;;;15.20;72.75
44697;BME280;57264;47.480;19.354;2022-10-31T07:08:37;99687.00;;;15.20;73.02
44697;BME280;57264;47.480;19.354;2022-10-31T07:11:03;99687.00;;;15.20;73.34
44697;BME280;57264;47.480;19.354;2022-10-31T07:13:28;99691.41;;;15.21;73.23
44697;BME280;57264;47.480;19.354;2022-10-31T07:15:59;99693.88;;;15.29;72.95
44697;BME280;57264;47.480;19.354;2022-10-31T07:18:25;99691.94;;;15.36;72.80
44697;BME280;57264;47.480;19.354;2022-10-31T07:20:51;99681.28;;;15.35;72.42
44697;BME280;57264;47.480;19.354;2022-10-31T07:23:17;99686.88;;;15.47;71.89
44697;BME280;57264;47.480;19.354;2022-10-31T07:25:43;99693.59;;;15.44;71.97
44697;BME280;57264;47.480;19.354;2022-10-31T07:28:09;99688.09;;;15.51;72.05
44697;BME280;57264;47.480;19.354;2022-10-31T07:30:35;99685.38;;;15.51;71.97
44697;BME280;57264;47.480;19.354;2022-10-31T07:33:00;99684.34;;;15.45;71.70
44697;BME280;57264;47.480;19.354;2022-10-31T07:35:27;99680.97;;;15.50;71.94
44697;BME280;57264;47.480;19.354;2022-10-31T07:37:54;99687.03;;;15.58;72.29
44697;BME280;57264;47.480;19.354;2022-10-31T07:40:20;99680.25;;;15.68;72.14
44697;BME280;57264;47.480;19.354;2022-10-31T07:42:48;99683.59;;;15.70;71.33
44697;BME280;57264;47.480;19.354;2022-10-31T07:45:16;99676.81;;;15.79;70.85
44697;BME280;57264;47.480;19.354;2022-10-31T07:47:50;99676.56;;;15.87;70.66
44697;BME280;57264;47.480;19.354;2022-10-31T07:50:19;99690.03;;;15.82;69.76
44697;BME280;57264;47.480;19.354;2022-10-31T07:52:45;99694.06;;;15.66;70.07
44697;BME280;57264;47.480;19.354;2022-10-31T07:55:11;99687.13;;;15.70;70.19
44697;BME280;57264;47.480;19.354;2022-10-31T07:57:37;99696.91;;;15.85;70.80
44697;BME280;57264;47.480;19.354;2022-10-31T08:00:07;99691.31;;;15.80;70.57
44697;BME280;57264;47.480;19.354;2022-10-31T08:02:33;99691.53;;;15.71;70.71
44697;BME280;57264;47.480;19.354;2022-10-31T08:04:58;99696.38;;;15.69;71.05
44697;BME280;57264;47.480;19.354;2022-10-31T08:07:25;99701.59;;;15.71;70.31
44697;BME280;57264;47.480;19.354;2022-10-31T08:09:51;99702.56;;;15.83;70.60
44697;BME280;57264;47.480;19.354;2022-10-31T08:12:17;99696.69;;;15.86;70.05
44697;BME280;57264;47.480;19.354;2022-10-31T08:14:42;99703.16;;;15.92;69.63
44697;BME280;57264;47.480;19.354;2022-10-31T08:17:09;99705.00;;;15.98;69.62
44697;BME280;57264;47.480;19.354;2022-10-31T08:19:35;99705.66;;;15.93;69.60
44697;BME280;57264;47.480;19.354;2022-10-31T08:22:00;99704.38;;;15.96;69.65
44697;BME280;57264;47.480;19.354;2022-10-31T08:24:26;99709.31;;;16.06;69.70
44697;BME280;57264;47.480;19.354;2022-10-31T08:26:51;99701.94;;;16.13;69.14
44697;BME280;57264;47.480;19.354;2022-10-31T08:29:17;99694.66;;;16.07;68.59
44697;BME280;57264;47.480;19.354;2022-10-31T08:31:43;99703.78;;;15.94;68.20
44697;BME280;57264;47.480;19.354;2022-10-31T08:34:08;99706.16;;;15.77;68.69
44697;BME280;57264;47.480;19.354;2022-10-31T08:36:34;99697.38;;;15.82;68.75
44697;BME280;57264;47.480;19.354;2022-10-31T08:39:00;99703.09;;;15.98;69.69
44697;BME280;57264;47.480;19.354;2022-10-31T08:41:25;99707.53;;;15.93;69.17
44697;BME280;57264;47.480;19.354;2022-10-31T08:43:50;99709.31;;;16.06;70.10
44697;BME280;57264;47.480;19.354;2022-10-31T08:46:16;99708.50;;;16.05;69.89
44697;BME280;57264;47.480;19.354;2022-10-31T08:48:42;99705.38;;;16.02;70.11
44697;BME280;57264;47.480;19.354;2022-10-31T08:51:08;99702.66;;;16.02;69.98
44697;BME280;57264;47.480;19.354;2022-10-31T08:53:34;99710.88;;;15.95;70.08
44697;BME280;57264;47.480;19.354;2022-10-31T08:56:00;99707.28;;;16.01;70.08
44697;BME280;57264;47.480;19.354;2022-10-31T08:58:25;99717.97;;;16.03;70.17
44697;BME280;57264;47.480;19.354;2022-10-31T09:00:53;99718.78;;;16.03;70.48
44697;BME280;57264;47.480;19.354;2022-10-31T09:03:23;99716.41;;;16.13;69.55
44697;BME280;57264;47.480;19.354;2022-10-31T09:05:49;99716.06;;;16.03;69.42
44697;BME280;57264;47.480;19.354;2022-10-31T09:08:16;99714.56;;;16.07;70.14
44697;BME280;57264;47.480;19.354;2022-10-31T09:10:43;99723.34;;;16.09;69.39
44697;BME280;57264;47.480;19.354;2022-10-31T09:13:11;99718.28;;;16.13;69.78
44697;BME280;57264;47.480;19.354;2022-10-31T09:15:38;99717.63;;;16.17;69.57
44697;BME280;57264;47.480;19.354;2022-10-31T09:18:05;99717.97;;;16.28;69.23
44697;BME280;57264;47.480;19.354;2022-10-31T09:20:32;99715.56;;;16.38;68.81
44697;BME280;57264;47.480;19.354;2022-10-31T09:23:00;99720.06;;;16.51;68.19
44697;BME280;57264;47.480;19.354;2022-10-31T09:25:26;99715.94;;;16.42;67.84
44697;BME280;57264;47.480;19.354;2022-10-31T09:28:06;99718.69;;;16.60;67.33
44697;BME280;57264;47.480;19.354;2022-10-31T09:30:34;99715.22;;;16.53;67.14
44697;BME280;57264;47.480;19.354;2022-10-31T09:33:02;99719.25;;;16.69;67.82
44697;BME280;57264;47.480;19.354;2022-10-31T09:35:28;99724.31;;;16.65;67.18
44697;BME280;57264;47.480;19.354;2022-10-31T09:37:58;99716.97;;;16.66;67.23
44697;BME280;57264;47.480;19.354;2022-10-31T09:40:54;99726.75;;;16.73;67.41
44697;BME280;57264;47.480;19.354;2022-10-31T09:51:28;99724.63;;;16.75;66.53
44697;BME280;57264;47.480;19.354;2022-10-31T09:54:08;99720.97;;;16.88;66.49
44697;BME280;57264;47.480;19.354;2022-10-31T09:56:37;99727.31;;;16.82;66.88
44697;BME280;57264;47.480;19.354;2022-10-31T09:59:06;99722.47;;;16.84;66.75
44697;BME280;57264;47.480;19.354;2022-10-31T10:01:55;99718.31;;;16.75;66.40
44697;BME280;57264;47.480;19.354;2022-10-31T10:09:44;99715.78;;;16.80;66.42
44697;BME280;57264;47.480;19.354;2022-10-31T10:18:21;99714.06;;;16.86;66.91
44697;BME280;57264;47.480;19.354;2022-10-31T10:26:20;99707.41;;;16.75;67.25
44697;BME280;57264;47.480;19.354;2022-10-31T10:29:00;99706.38;;;16.76;67.45
44697;BME280;57264;47.480;19.354;2022-10-31T10:31:38;99703.38;;;16.84;67.46
44697;BME280;57264;47.480;19.354;2022-10-31T10:36:43;99704.44;;;16.83;67.69
44697;BME280;57264;47.480;19.354;2022-10-31T10:39:36;99705.00;;;16.67;68.04
44697;BME280;57264;47.480;19.354;2022-10-31T10:42:11;99705.31;;;16.58;68.11
44697;BME280;57264;47.480;19.354;2022-10-31T10:44:55;99692.22;;;16.67;67.83
44697;BME280;57264;47.480;19.354;2022-10-31T10:47:46;99705.66;;;16.62;67.77
44697;BME280;57264;47.480;19.354;2022-10-31T10:50:20;99699.56;;;16.67;67.87
44697;BME280;57264;47.480;19.354;2022-10-31T10:56:36;99696.44;;;16.63;67.61
44697;BME280;57264;47.480;19.354;2022-10-31T10:59:03;99697.09;;;16.84;67.21
44697;BME280;57264;47.480;19.354;2022-10-31T11:01:29;99690.22;;;16.74;66.82
44697;BME280;57264;47.480;19.354;2022-10-31T11:03:54;99686.47;;;16.75;66.86
44697;BME280;57264;47.480;19.354;2022-10-31T11:06:22;99689.91;;;16.64;67.25
44697;BME280;57264;47.480;19.354;2022-10-31T11:08:52;99685.38;;;16.58;67.22
44697;BME280;57264;47.480;19.354;2022-10-31T11:13:48;99685.25;;;16.71;66.90
44697;BME280;57264;47.480;19.354;2022-10-31T11:18:52;99687.84;;;16.85;66.37
44697;BME280;57264;47.480;19.354;2022-10-31T11:21:26;99682.31;;;16.91;66.41
44697;BME280;57264;47.480;19.354;2022-10-31T11:24:14;99680.13;;;17.00;66.21
44697;BME280;57264;47.480;19.354;2022-10-31T11:26:42;99678.53;;;16.92;66.12
44697;BME280;57264;47.480;19.354;2022-10-31T11:29:14;99680.03;;;16.88;65.90
44697;BME280;57264;47.480;19.354;2022-10-31T11:31:42;99676.94;;;16.85;66.04
44697;BME280;57264;47.480;19.354;2022-10-31T11:34:32;99678.53;;;16.92;66.09
44697;BME280;57264;47.480;19.354;2022-10-31T11:37:23;99675.50;;;16.82;65.99
44697;BME280;57264;47.480;19.354;2022-10-31T11:39:53;99677.16;;;16.83;66.22
44697;BME280;57264;47.480;19.354;2022-10-31T11:42:26;99680.16;;;16.75;66.68
44697;BME280;57264;47.480;19.354;2022-10-31T11:44:53;99672.56;;;16.77;66.61
44697;BME280;57264;47.480;19.354;2022-10-31T11:47:29;99675.19;;;16.90;66.79
44697;BME280;57264;47.480;19.354;2022-10-31T11:49:56;99664.72;;;16.87;66.30
44697;BME280;57264;47.480;19.354;2022-10-31T11:52:26;99676.50;;;16.88;66.50
44697;BME280;57264;47.480;19.354;2022-10-31T11:54:58;99668.66;;;16.91;65.89
44697;BME280;57264;47.480;19.354;2022-10-31T11:57:25;99664.97;;;17.04;65.65
44697;BME280;57264;47.480;19.354;2022-10-31T11:59:53;99663.59;;;16.95;65.07
44697;BME280;57264;47.480;19.354;2022-10-31T12:02:20;99659.94;;;17.01;64.89
44697;BME280;57264;47.480;19.354;2022-10-31T12:04:51;99666.00;;;16.85;65.39
44697;BME280;57264;47.480;19.354;2022-10-31T12:07:18;99668.56;;;16.79;66.53
44697;BME280;57264;47.480;19.354;2022-10-31T12:09:43;99666.16;;;16.71;66.08
44697;BME280;57264;47.480;19.354;2022-10-31T12:26:49;99665.63;;;16.63;67.10
44697;BME280;57264;47.480;19.354;2022-10-31T12:32:15;99669.91;;;16.70;66.15
44697;BME280;57264;47.480;19.354;2022-10-31T12:35:04;99660.41;;;16.79;66.36
44697;BME280;57264;47.480;19.354;2022-10-31T12:45:59;99668.78;;;16.78;66.42
44697;BME280;57264;47.480;19.354;2022-10-31T12:57:07;99660.53;;;16.66;65.50
44697;BME280;57264;47.480;19.354;2022-10-31T13:00:18;99657.41;;;16.44;67.03
44697;BME280;57264;47.480;19.354;2022-10-31T13:02:49;99664.31;;;16.47;67.26
44697;BME280;57264;47.480;19.354;2022-10-31T13:05:39;99661.13;;;16.50;67.69
44697;BME280;57264;47.480;19.354;2022-10-31T13:08:30;99658.09;;;16.39;67.39
44697;BME280;57264;47.480;19.354;2022-10-31T13:13:40;99658.59;;;16.30;67.65
44697;BME280;57264;47.480;19.354;2022-10-31T13:22:06;99655.38;;;16.14;67.80
44697;BME280;57264;47.480;19.354;2022-10-31T13:24:38;99658.09;;;16.14;68.36
44697;BME280;57264;47.480;19.354;2022-10-31T13:27:17;99651.34;;;16.24;68.02
44697;BME280;57264;47.480;19.354;2022-10-31T13:32:30;99657.81;;;16.23;67.94
44697;BME280;57264;47.480;19.354;2022-10-31T13:35:02;99656.16;;;16.22;68.10
44697;BME280;57264;47.480;19.354;2022-10-31T13:37:35;99656.94;;;16.04;68.54
44697;BME280;57264;47.480;19.354;2022-10-31T13:45:19;99657.94;;;16.09;68.06
44697;BME280;57264;47.480;19.354;2022-10-31T13:47:56;99649.16;;;16.07;68.19
44697;BME280;57264;47.480;19.354;2022-10-31T13:50:31;99650.47;;;16.05;67.86
44697;BME280;57264;47.480;19.354;2022-10-31T13:55:50;99655.00;;;16.11;67.72
44697;BME280;57264;47.480;19.354;2022-10-31T13:58:28;99657.50;;;16.12;68.36
44697;BME280;57264;47.480;19.354;2022-10-31T14:01:17;99647.19;;;15.96;69.08
44697;BME280;57264;47.480;19.354;2022-10-31T14:03:46;99651.16;;;15.93;69.70
44697;BME280;57264;47.480;19.354;2022-10-31T14:06:14;99654.28;;;15.97;69.53
44697;BME280;57264;47.480;19.354;2022-10-31T14:08:48;99658.50;;;15.93;69.50
44697;BME280;57264;47.480;19.354;2022-10-31T14:11:27;99650.34;;;15.93;69.61
44697;BME280;57264;47.480;19.354;2022-10-31T14:13:55;99651.00;;;15.88;70.17
44697;BME280;57264;47.480;19.354;2022-10-31T14:19:05;99647.88;;;15.85;70.37
44697;BME280;57264;47.480;19.354;2022-10-31T14:21:38;99645.16;;;15.85;70.15
44697;BME280;57264;47.480;19.354;2022-10-31T14:26:58;99648.00;;;15.96;69.87
44697;BME280;57264;47.480;19.354;2022-10-31T14:29:28;99639.00;;;15.96;69.62
44697;BME280;57264;47.480;19.354;2022-10-31T14:32:22;99643.13;;;15.80;70.21
44697;BME280;57264;47.480;19.354;2022-10-31T14:35:01;99638.69;;;15.79;70.47
44697;BME280;57264;47.480;19.354;2022-10-31T14:38:24;99634.56;;;15.70;70.88
44697;BME280;57264;47.480;19.354;2022-10-31T14:40:35;99634.16;;;15.66;70.97
44697;BME280;57264;47.480;19.354;2022-10-31T14:43:35;99633.13;;;15.67;71.15
44697;BME280;57264;47.480;19.354;2022-10-31T14:51:21;99640.28;;;15.62;71.63
44697;BME280;57264;47.480;19.354;2022-10-31T14:53:50;99643.09;;;15.48;71.90
44697;BME280;57264;47.480;19.354;2022-10-31T14:56:24;99641.56;;;15.59;71.50
44697;BME280;57264;47.480;19.354;2022-10-31T14:58:50;99638.28;;;15.50;71.89
44697;BME280;57264;47.480;19.354;2022-10-31T15:01:26;99644.97;;;15.48;72.08
44697;BME280;57264;47.480;19.354;2022-10-31T15:03:57;99644.97;;;15.48;72.19
44697;BME280;57264;47.480;19.354;2022-10-31T15:06:25;99637.13;;;15.33;72.91
44697;BME280;57264;47.480;19.354;2022-10-31T15:08:53;99636.66;;;15.43;72.54
44697;BME280;57264;47.480;19.354;2022-10-31T15:11:26;99634.38;;;15.33;72.86
44697;BME280;57264;47.480;19.354;2022-10-31T15:14:05;99644.91;;;15.29;72.69
44697;BME280;57264;47.480;19.354;2022-10-31T15:16:43;99642.59;;;15.26;72.48
44697;BME280;57264;47.480;19.354;2022-10-31T15:19:21;99641.31;;;15.35;72.29